sensor_id;sensor_type;location;lat;lon;timestamp;pressure;altitude;pressure_sealevel;temperature;humidity
77019;BME280;66044;53.142;17.962;2022-12-29T00:01:44;100431.63;;;6.62;72.84
77019;BME280;66044;53.142;17.962;2022-12-29T00:04:13;100427.48;;;6.60;73.09
77019;BME280;66044;53.142;17.962;2022-12-29T00:06:40;100425.67;;;6.57;73.19
77019;BME280;66044;53.142;17.962;2022-12-29T00:09:07;100416.95;;;6.52;73.33
77019;BME280;66044;53.142;17.962;2022-12-29T00:11:34;100411.02;;;6.46;73.62
77019;BME280;66044;53.142;17.962;2022-12-29T00:14:00;100410.16;;;6.44;73.54
77019;BME280;66044;53.142;17.962;2022-12-29T00:16:45;100411.70;;;6.42;73.76
77019;BME280;66044;53.142;17.962;2022-12-29T00:19:12;100410.46;;;6.40;73.84
77019;BME280;66044;53.142;17.962;2022-12-29T00:21:57;100410.16;;;6.38;73.88
77019;BME280;66044;53.142;17.962;2022-12-29T00:24:44;100404.15;;;6.37;74.06
77019;BME280;66044;53.142;17.962;2022-12-29T00:27:30;100406.27;;;6.38;74.01
77019;BME280;66044;53.142;17.962;2022-12-29T00:30:20;100404.81;;;6.40;74.30
77019;BME280;66044;53.142;17.962;2022-12-29T00:33:13;100401.14;;;6.41;74.43
77019;BME280;66044;53.142;17.962;2022-12-29T00:36:02;100399.17;;;6.38;74.63
77019;BME280;66044;53.142;17.962;2022-12-29T00:38:32;100398.05;;;6.36;74.63
77019;BME280;66044;53.142;17.962;2022-12-29T00:41:19;100396.60;;;6.36;74.67
77019;BME280;66044;53.142;17.962;2022-12-29T00:44:04;100395.21;;;6.36;74.64
77019;BME280;66044;53.142;17.962;2022-12-29T00:46:32;100400.21;;;6.34;74.82
77019;BME280;66044;53.142;17.962;2022-12-29T00:48:59;100395.65;;;6.32;74.84
77019;BME280;66044;53.142;17.962;2022-12-29T00:51:45;100397.50;;;6.29;74.89
77019;BME280;66044;53.142;17.962;2022-12-29T00:54:12;100395.77;;;6.30;75.07
77019;BME280;66044;53.142;17.962;2022-12-29T00:56:39;100396.52;;;6.34;74.93
77019;BME280;66044;53.142;17.962;2022-12-29T00:59:08;100403.95;;;6.36;74.99
77019;BME280;66044;53.142;17.962;2022-12-29T01:01:35;100410.08;;;6.38;75.03
77019;BME280;66044;53.142;17.962;2022-12-29T01:04:03;100412.34;;;6.38;75.31
77019;BME280;66044;53.142;17.962;2022-12-29T01:06:30;100408.71;;;6.35;75.25
77019;BME280;66044;53.142;17.962;2022-12-29T01:08:57;100410.27;;;6.35;75.13
77019;BME280;66044;53.142;17.962;2022-12-29T01:11:42;100413.63;;;6.38;75.22
77019;BME280;66044;53.142;17.962;2022-12-29T01:14:08;100414.32;;;6.40;75.09
77019;BME280;66044;53.142;17.962;2022-12-29T01:16:35;100413.12;;;6.38;75.19
77019;BME280;66044;53.142;17.962;2022-12-29T01:19:03;100403.98;;;6.37;75.11
77019;BME280;66044;53.142;17.962;2022-12-29T01:21:30;100394.69;;;6.35;75.15
77019;BME280;66044;53.142;17.962;2022-12-29T01:23:56;100390.08;;;6.34;75.17
77019;BME280;66044;53.142;17.962;2022-12-29T01:26:23;100393.19;;;6.36;75.14
77019;BME280;66044;53.142;17.962;2022-12-29T01:28:49;100391.59;;;6.36;74.99
77019;BME280;66044;53.142;17.962;2022-12-29T01:31:16;100393.95;;;6.35;74.97
77019;BME280;66044;53.142;17.962;2022-12-29T01:33:43;100392.94;;;6.33;74.98
77019;BME280;66044;53.142;17.962;2022-12-29T01:36:12;100391.58;;;6.30;74.97
77019;BME280;66044;53.142;17.962;2022-12-29T01:38:40;100385.75;;;6.28;75.21
77019;BME280;66044;53.142;17.962;2022-12-29T01:41:09;100375.89;;;6.27;75.25
77019;BME280;66044;53.142;17.962;2022-12-29T01:46:21;100372.95;;;6.25;75.18
77019;BME280;66044;53.142;17.962;2022-12-29T01:49:13;100371.28;;;6.22;75.10
77019;BME280;66044;53.142;17.962;2022-12-29T01:51:52;100372.03;;;6.19;75.30
77019;BME280;66044;53.142;17.962;2022-12-29T01:54:25;100365.46;;;6.20;75.29
77019;BME280;66044;53.142;17.962;2022-12-29T01:56:55;100361.21;;;6.21;75.35
77019;BME280;66044;53.142;17.962;2022-12-29T01:59:33;100347.27;;;6.20;75.06
77019;BME280;66044;53.142;17.962;2022-12-29T02:04:48;100336.83;;;6.19;75.24
77019;BME280;66044;53.142;17.962;2022-12-29T02:07:19;100332.13;;;6.22;74.84
77019;BME280;66044;53.142;17.962;2022-12-29T02:09:51;100326.90;;;6.23;75.00
77019;BME280;66044;53.142;17.962;2022-12-29T02:12:20;100320.64;;;6.21;75.00
77019;BME280;66044;53.142;17.962;2022-12-29T02:14:53;100321.51;;;6.20;74.91
77019;BME280;66044;53.142;17.962;2022-12-29T02:23:16;100307.12;;;6.28;74.90
77019;BME280;66044;53.142;17.962;2022-12-29T02:26:22;100307.39;;;6.26;74.88
77019;BME280;66044;53.142;17.962;2022-12-29T02:37:05;100277.13;;;6.35;74.56
77019;BME280;66044;53.142;17.962;2022-12-29T02:40:29;100278.82;;;6.35;74.60
77019;BME280;66044;53.142;17.962;2022-12-29T02:42:51;100281.16;;;6.41;74.42
77019;BME280;66044;53.142;17.962;2022-12-29T02:45:41;100271.71;;;6.44;74.51
77019;BME280;66044;53.142;17.962;2022-12-29T02:48:29;100264.14;;;6.43;74.27
77019;BME280;66044;53.142;17.962;2022-12-29T02:51:09;100263.57;;;6.43;74.10
77019;BME280;66044;53.142;17.962;2022-12-29T02:53:37;100262.86;;;6.43;74.05
77019;BME280;66044;53.142;17.962;2022-12-29T02:56:22;100263.44;;;6.46;73.78
77019;BME280;66044;53.142;17.962;2022-12-29T02:58:49;100264.52;;;6.47;73.92
77019;BME280;66044;53.142;17.962;2022-12-29T03:04:21;100257.83;;;6.46;73.90
77019;BME280;66044;53.142;17.962;2022-12-29T03:07:02;100260.48;;;6.51;73.67
77019;BME280;66044;53.142;17.962;2022-12-29T03:10:06;100261.45;;;6.54;73.61
77019;BME280;66044;53.142;17.962;2022-12-29T03:12:48;100257.34;;;6.54;73.62
77019;BME280;66044;53.142;17.962;2022-12-29T03:15:45;100258.55;;;6.53;73.65
77019;BME280;66044;53.142;17.962;2022-12-29T03:18:56;100257.66;;;6.56;73.68
77019;BME280;66044;53.142;17.962;2022-12-29T03:21:53;100254.46;;;6.58;73.66
77019;BME280;66044;53.142;17.962;2022-12-29T03:24:41;100250.00;;;6.53;73.63
77019;BME280;66044;53.142;17.962;2022-12-29T03:27:13;100246.83;;;6.52;73.76
77019;BME280;66044;53.142;17.962;2022-12-29T03:29:53;100246.52;;;6.54;73.78
77019;BME280;66044;53.142;17.962;2022-12-29T03:32:23;100247.48;;;6.55;73.77
77019;BME280;66044;53.142;17.962;2022-12-29T03:34:51;100250.96;;;6.55;73.87
77019;BME280;66044;53.142;17.962;2022-12-29T03:37:22;100243.87;;;6.55;73.76
77019;BME280;66044;53.142;17.962;2022-12-29T03:39:49;100247.05;;;6.56;73.77
77019;BME280;66044;53.142;17.962;2022-12-29T03:42:19;100247.84;;;6.58;73.76
77019;BME280;66044;53.142;17.962;2022-12-29T03:44:47;100243.71;;;6.59;74.00
77019;BME280;66044;53.142;17.962;2022-12-29T03:47:14;100249.35;;;6.57;73.81
77019;BME280;66044;53.142;17.962;2022-12-29T03:49:41;100241.90;;;6.55;73.75
77019;BME280;66044;53.142;17.962;2022-12-29T03:52:07;100241.08;;;6.55;73.88
77019;BME280;66044;53.142;17.962;2022-12-29T03:54:34;100238.54;;;6.56;73.90
77019;BME280;66044;53.142;17.962;2022-12-29T03:57:00;100239.53;;;6.55;74.01
77019;BME280;66044;53.142;17.962;2022-12-29T03:59:26;100245.50;;;6.52;73.94
77019;BME280;66044;53.142;17.962;2022-12-29T04:01:53;100237.99;;;6.51;73.98
77019;BME280;66044;53.142;17.962;2022-12-29T04:04:19;100236.88;;;6.53;73.84
77019;BME280;66044;53.142;17.962;2022-12-29T04:06:46;100230.20;;;6.54;74.01
77019;BME280;66044;53.142;17.962;2022-12-29T04:09:12;100221.02;;;6.52;73.99
77019;BME280;66044;53.142;17.962;2022-12-29T04:11:39;100220.06;;;6.49;74.16
77019;BME280;66044;53.142;17.962;2022-12-29T04:14:05;100221.23;;;6.51;73.95
77019;BME280;66044;53.142;17.962;2022-12-29T04:16:31;100220.90;;;6.54;73.98
77019;BME280;66044;53.142;17.962;2022-12-29T04:19:02;100216.85;;;6.54;74.02
77019;BME280;66044;53.142;17.962;2022-12-29T04:21:28;100208.66;;;6.53;73.98
77019;BME280;66044;53.142;17.962;2022-12-29T04:23:55;100206.95;;;6.52;74.21
77019;BME280;66044;53.142;17.962;2022-12-29T04:26:21;100205.98;;;6.55;74.18
77019;BME280;66044;53.142;17.962;2022-12-29T04:28:48;100205.65;;;6.57;73.85
77019;BME280;66044;53.142;17.962;2022-12-29T04:31:14;100201.56;;;6.56;73.77
77019;BME280;66044;53.142;17.962;2022-12-29T04:33:40;100202.67;;;6.53;73.78
77019;BME280;66044;53.142;17.962;2022-12-29T04:36:07;100198.27;;;6.52;73.98
77019;BME280;66044;53.142;17.962;2022-12-29T04:38:33;100194.02;;;6.55;73.79
77019;BME280;66044;53.142;17.962;2022-12-29T04:41:01;100195.14;;;6.57;73.83
77019;BME280;66044;53.142;17.962;2022-12-29T04:43:28;100202.72;;;6.59;73.79
77019;BME280;66044;53.142;17.962;2022-12-29T04:45:55;100200.77;;;6.60;73.71
77019;BME280;66044;53.142;17.962;2022-12-29T04:48:21;100194.08;;;6.59;73.71
77019;BME280;66044;53.142;17.962;2022-12-29T04:50:49;100192.25;;;6.61;73.65
77019;BME280;66044;53.142;17.962;2022-12-29T04:53:17;100191.60;;;6.64;73.60
77019;BME280;66044;53.142;17.962;2022-12-29T04:55:43;100188.02;;;6.64;73.64
77019;BME280;66044;53.142;17.962;2022-12-29T04:58:10;100187.35;;;6.62;73.76
77019;BME280;66044;53.142;17.962;2022-12-29T05:00:37;100191.72;;;6.63;73.66
77019;BME280;66044;53.142;17.962;2022-12-29T05:03:03;100194.53;;;6.68;73.78
77019;BME280;66044;53.142;17.962;2022-12-29T05:05:30;100194.94;;;6.72;73.50
77019;BME280;66044;53.142;17.962;2022-12-29T05:07:56;100193.16;;;6.73;73.62
77019;BME280;66044;53.142;17.962;2022-12-29T05:10:23;100199.13;;;6.73;73.47
77019;BME280;66044;53.142;17.962;2022-12-29T05:12:49;100191.63;;;6.74;73.48
77019;BME280;66044;53.142;17.962;2022-12-29T05:15:16;100192.54;;;6.77;73.50
77019;BME280;66044;53.142;17.962;2022-12-29T05:17:42;100194.17;;;6.80;73.40
77019;BME280;66044;53.142;17.962;2022-12-29T05:20:10;100190.44;;;6.80;73.21
77019;BME280;66044;53.142;17.962;2022-12-29T05:22:36;100185.04;;;6.80;73.49
77019;BME280;66044;53.142;17.962;2022-12-29T05:25:03;100172.13;;;6.80;73.48
77019;BME280;66044;53.142;17.962;2022-12-29T05:27:30;100166.39;;;6.81;73.28
77019;BME280;66044;53.142;17.962;2022-12-29T05:29:56;100160.95;;;6.82;73.14
77019;BME280;66044;53.142;17.962;2022-12-29T05:32:22;100163.70;;;6.82;73.27
77019;BME280;66044;53.142;17.962;2022-12-29T05:34:49;100161.83;;;6.81;73.18
77019;BME280;66044;53.142;17.962;2022-12-29T05:37:16;100156.63;;;6.82;73.09
77019;BME280;66044;53.142;17.962;2022-12-29T05:39:42;100149.80;;;6.85;73.25
77019;BME280;66044;53.142;17.962;2022-12-29T05:42:08;100145.23;;;6.88;73.14
77019;BME280;66044;53.142;17.962;2022-12-29T05:44:35;100140.33;;;6.90;72.82
77019;BME280;66044;53.142;17.962;2022-12-29T05:47:01;100135.21;;;6.87;73.00
77019;BME280;66044;53.142;17.962;2022-12-29T05:49:28;100135.37;;;6.87;72.78
77019;BME280;66044;53.142;17.962;2022-12-29T05:51:54;100134.90;;;6.89;72.79
77019;BME280;66044;53.142;17.962;2022-12-29T05:54:21;100130.20;;;6.91;72.85
77019;BME280;66044;53.142;17.962;2022-12-29T05:56:47;100124.73;;;6.93;72.73
77019;BME280;66044;53.142;17.962;2022-12-29T05:59:14;100126.45;;;6.91;72.78
77019;BME280;66044;53.142;17.962;2022-12-29T06:01:40;100125.64;;;6.90;72.97
77019;BME280;66044;53.142;17.962;2022-12-29T06:04:07;100128.58;;;6.93;72.40
77019;BME280;66044;53.142;17.962;2022-12-29T06:06:33;100132.55;;;6.98;72.41
77019;BME280;66044;53.142;17.962;2022-12-29T06:09:00;100138.42;;;7.00;72.27
77019;BME280;66044;53.142;17.962;2022-12-29T06:11:26;100133.77;;;7.00;72.49
77019;BME280;66044;53.142;17.962;2022-12-29T06:13:53;100141.39;;;7.00;72.45
77019;BME280;66044;53.142;17.962;2022-12-29T06:16:19;100149.13;;;7.04;72.30
77019;BME280;66044;53.142;17.962;2022-12-29T06:18:46;100144.19;;;7.08;72.13
77019;BME280;66044;53.142;17.962;2022-12-29T06:21:12;100143.31;;;7.10;71.75
77019;BME280;66044;53.142;17.962;2022-12-29T06:23:38;100143.69;;;7.12;72.00
77019;BME280;66044;53.142;17.962;2022-12-29T06:26:05;100135.02;;;7.13;71.70
77019;BME280;66044;53.142;17.962;2022-12-29T06:28:31;100130.02;;;7.14;71.86
77019;BME280;66044;53.142;17.962;2022-12-29T06:30:58;100127.21;;;7.16;71.79
77019;BME280;66044;53.142;17.962;2022-12-29T06:33:24;100124.36;;;7.17;71.50
77019;BME280;66044;53.142;17.962;2022-12-29T06:35:51;100125.17;;;7.16;71.37
77019;BME280;66044;53.142;17.962;2022-12-29T06:38:17;100129.85;;;7.15;71.25
77019;BME280;66044;53.142;17.962;2022-12-29T06:40:44;100136.77;;;7.16;71.53
77019;BME280;66044;53.142;17.962;2022-12-29T06:43:11;100140.93;;;7.20;71.27
77019;BME280;66044;53.142;17.962;2022-12-29T06:45:38;100138.95;;;7.24;71.27
77019;BME280;66044;53.142;17.962;2022-12-29T06:48:06;100139.41;;;7.27;71.32
77019;BME280;66044;53.142;17.962;2022-12-29T06:50:33;100142.09;;;7.27;71.13
77019;BME280;66044;53.142;17.962;2022-12-29T06:52:59;100146.70;;;7.28;71.02
77019;BME280;66044;53.142;17.962;2022-12-29T06:55:26;100152.40;;;7.30;70.69
77019;BME280;66044;53.142;17.962;2022-12-29T06:57:56;100151.61;;;7.36;70.80
77019;BME280;66044;53.142;17.962;2022-12-29T07:00:24;100145.20;;;7.40;70.64
77019;BME280;66044;53.142;17.962;2022-12-29T07:02:50;100142.05;;;7.42;70.61
77019;BME280;66044;53.142;17.962;2022-12-29T07:05:17;100138.06;;;7.43;70.79
77019;BME280;66044;53.142;17.962;2022-12-29T07:07:44;100145.05;;;7.43;70.54
77019;BME280;66044;53.142;17.962;2022-12-29T07:10:10;100146.52;;;7.44;70.71
77019;BME280;66044;53.142;17.962;2022-12-29T07:12:37;100149.45;;;7.52;70.47
77019;BME280;66044;53.142;17.962;2022-12-29T07:15:04;100158.94;;;7.54;70.10
77019;BME280;66044;53.142;17.962;2022-12-29T07:17:30;100159.92;;;7.56;70.09
77019;BME280;66044;53.142;17.962;2022-12-29T07:19:56;100158.27;;;7.55;70.11
77019;BME280;66044;53.142;17.962;2022-12-29T07:22:23;100148.63;;;7.54;70.04
77019;BME280;66044;53.142;17.962;2022-12-29T07:24:49;100148.76;;;7.55;69.64
77019;BME280;66044;53.142;17.962;2022-12-29T07:27:16;100156.10;;;7.59;69.78
77019;BME280;66044;53.142;17.962;2022-12-29T07:29:42;100160.87;;;7.62;69.84
77019;BME280;66044;53.142;17.962;2022-12-29T07:32:09;100163.04;;;7.66;69.65
77019;BME280;66044;53.142;17.962;2022-12-29T07:34:35;100156.54;;;7.70;69.48
77019;BME280;66044;53.142;17.962;2022-12-29T07:37:02;100154.84;;;7.73;69.53
77019;BME280;66044;53.142;17.962;2022-12-29T07:39:28;100148.54;;;7.79;69.11
77019;BME280;66044;53.142;17.962;2022-12-29T07:41:54;100149.97;;;7.83;69.17
77019;BME280;66044;53.142;17.962;2022-12-29T07:44:21;100149.93;;;7.84;68.96
77019;BME280;66044;53.142;17.962;2022-12-29T07:46:47;100147.41;;;7.84;68.97
77019;BME280;66044;53.142;17.962;2022-12-29T07:49:14;100143.52;;;7.84;68.75
77019;BME280;66044;53.142;17.962;2022-12-29T07:51:40;100140.71;;;7.83;68.93
77019;BME280;66044;53.142;17.962;2022-12-29T07:54:06;100143.64;;;7.83;68.85
77019;BME280;66044;53.142;17.962;2022-12-29T07:56:33;100137.70;;;7.85;68.81
77019;BME280;66044;53.142;17.962;2022-12-29T07:58:59;100129.92;;;7.86;68.85
77019;BME280;66044;53.142;17.962;2022-12-29T08:01:26;100127.98;;;7.85;68.76
77019;BME280;66044;53.142;17.962;2022-12-29T08:03:52;100123.77;;;7.86;68.87
77019;BME280;66044;53.142;17.962;2022-12-29T08:06:19;100125.14;;;7.88;68.95
77019;BME280;66044;53.142;17.962;2022-12-29T08:08:46;100130.68;;;7.91;68.87
77019;BME280;66044;53.142;17.962;2022-12-29T08:11:12;100141.55;;;7.99;68.45
77019;BME280;66044;53.142;17.962;2022-12-29T08:13:39;100145.25;;;8.07;68.68
77019;BME280;66044;53.142;17.962;2022-12-29T08:16:05;100146.30;;;8.13;68.55
77019;BME280;66044;53.142;17.962;2022-12-29T08:18:32;100147.33;;;8.13;68.77
77019;BME280;66044;53.142;17.962;2022-12-29T08:21:04;100138.05;;;8.13;68.44
77019;BME280;66044;53.142;17.962;2022-12-29T08:23:31;100140.88;;;8.15;68.13
77019;BME280;66044;53.142;17.962;2022-12-29T08:25:59;100134.58;;;8.22;68.10
77019;BME280;66044;53.142;17.962;2022-12-29T08:28:26;100129.75;;;8.35;67.72
77019;BME280;66044;53.142;17.962;2022-12-29T08:30:52;100134.84;;;8.43;67.82
77019;BME280;66044;53.142;17.962;2022-12-29T08:33:19;100140.18;;;8.43;67.50
77019;BME280;66044;53.142;17.962;2022-12-29T08:35:45;100145.01;;;8.41;67.62
77019;BME280;66044;53.142;17.962;2022-12-29T08:38:12;100150.89;;;8.41;67.58
77019;BME280;66044;53.142;17.962;2022-12-29T08:40:38;100147.92;;;8.45;67.70
77019;BME280;66044;53.142;17.962;2022-12-29T08:43:05;100157.88;;;8.50;67.39
77019;BME280;66044;53.142;17.962;2022-12-29T08:45:31;100160.92;;;8.51;67.23
77019;BME280;66044;53.142;17.962;2022-12-29T08:47:58;100175.40;;;8.54;67.41
77019;BME280;66044;53.142;17.962;2022-12-29T08:50:24;100172.19;;;8.56;67.37
77019;BME280;66044;53.142;17.962;2022-12-29T08:52:51;100168.19;;;8.55;67.16
77019;BME280;66044;53.142;17.962;2022-12-29T08:55:17;100167.44;;;8.54;67.14
77019;BME280;66044;53.142;17.962;2022-12-29T08:57:44;100162.90;;;8.53;67.21
77019;BME280;66044;53.142;17.962;2022-12-29T09:00:10;100161.48;;;8.57;67.41
77019;BME280;66044;53.142;17.962;2022-12-29T09:02:37;100155.80;;;8.62;67.26
77019;BME280;66044;53.142;17.962;2022-12-29T09:05:04;100153.25;;;8.61;67.12
77019;BME280;66044;53.142;17.962;2022-12-29T09:07:30;100150.60;;;8.60;67.04
77019;BME280;66044;53.142;17.962;2022-12-29T09:09:57;100145.32;;;8.58;66.99
77019;BME280;66044;53.142;17.962;2022-12-29T09:12:23;100144.19;;;8.56;67.10
77019;BME280;66044;53.142;17.962;2022-12-29T09:14:49;100143.59;;;8.56;66.76
77019;BME280;66044;53.142;17.962;2022-12-29T09:17:16;100139.52;;;8.58;66.81
77019;BME280;66044;53.142;17.962;2022-12-29T09:20:02;100139.80;;;8.63;66.76
77019;BME280;66044;53.142;17.962;2022-12-29T09:22:28;100148.17;;;8.64;66.65
77019;BME280;66044;53.142;17.962;2022-12-29T09:24:55;100148.75;;;8.61;66.96
77019;BME280;66044;53.142;17.962;2022-12-29T09:27:21;100143.94;;;8.59;67.03
77019;BME280;66044;53.142;17.962;2022-12-29T09:29:48;100140.38;;;8.59;67.05
77019;BME280;66044;53.142;17.962;2022-12-29T09:32:14;100137.31;;;8.59;67.03
77019;BME280;66044;53.142;17.962;2022-12-29T09:34:41;100141.50;;;8.62;66.78
77019;BME280;66044;53.142;17.962;2022-12-29T09:37:07;100139.21;;;8.68;66.89
77019;BME280;66044;53.142;17.962;2022-12-29T09:39:34;100136.19;;;8.71;66.56
77019;BME280;66044;53.142;17.962;2022-12-29T09:42:16;100132.16;;;8.71;66.93
77019;BME280;66044;53.142;17.962;2022-12-29T09:47:40;100121.88;;;8.73;66.59
77019;BME280;66044;53.142;17.962;2022-12-29T09:50:29;100120.73;;;8.75;66.46
77019;BME280;66044;53.142;17.962;2022-12-29T09:53:17;100123.21;;;8.80;66.24
77019;BME280;66044;53.142;17.962;2022-12-29T09:55:53;100118.31;;;8.84;66.24
77019;BME280;66044;53.142;17.962;2022-12-29T09:58:40;100118.59;;;8.85;66.32
77019;BME280;66044;53.142;17.962;2022-12-29T10:01:22;100118.11;;;8.89;66.29
77019;BME280;66044;53.142;17.962;2022-12-29T10:03:55;100118.26;;;8.89;66.14
77019;BME280;66044;53.142;17.962;2022-12-29T10:14:50;100119.14;;;8.99;65.74
77019;BME280;66044;53.142;17.962;2022-12-29T10:20:20;100112.02;;;9.03;65.77
77019;BME280;66044;53.142;17.962;2022-12-29T10:23:02;100112.69;;;9.04;65.69
77019;BME280;66044;53.142;17.962;2022-12-29T10:25:37;100111.02;;;9.04;65.83
77019;BME280;66044;53.142;17.962;2022-12-29T10:28:11;100109.27;;;9.07;65.81
77019;BME280;66044;53.142;17.962;2022-12-29T10:30:43;100115.20;;;9.12;65.31
77019;BME280;66044;53.142;17.962;2022-12-29T10:33:15;100111.41;;;9.13;65.72
77019;BME280;66044;53.142;17.962;2022-12-29T10:35:46;100112.27;;;9.14;65.60
77019;BME280;66044;53.142;17.962;2022-12-29T10:38:28;100110.19;;;9.13;65.40
77019;BME280;66044;53.142;17.962;2022-12-29T10:41:21;100099.59;;;9.13;65.56
77019;BME280;66044;53.142;17.962;2022-12-29T10:43:52;100097.52;;;9.14;65.69
77019;BME280;66044;53.142;17.962;2022-12-29T10:46:26;100101.89;;;9.17;65.73
77019;BME280;66044;53.142;17.962;2022-12-29T10:48:54;100099.94;;;9.20;65.57
77019;BME280;66044;53.142;17.962;2022-12-29T10:51:24;100101.66;;;9.21;65.44
77019;BME280;66044;53.142;17.962;2022-12-29T10:53:58;100095.36;;;9.21;65.54
77019;BME280;66044;53.142;17.962;2022-12-29T10:57:31;100092.11;;;9.20;65.47
77019;BME280;66044;53.142;17.962;2022-12-29T10:59:28;100093.44;;;9.20;65.50
77019;BME280;66044;53.142;17.962;2022-12-29T11:02:02;100087.72;;;9.23;65.56
77019;BME280;66044;53.142;17.962;2022-12-29T11:07:37;100090.73;;;9.28;65.48
77019;BME280;66044;53.142;17.962;2022-12-29T11:13:00;100091.52;;;9.29;65.47
77019;BME280;66044;53.142;17.962;2022-12-29T11:15:27;100089.54;;;9.29;65.43
77019;BME280;66044;53.142;17.962;2022-12-29T11:18:04;100083.89;;;9.30;65.43
77019;BME280;66044;53.142;17.962;2022-12-29T11:20:37;100079.77;;;9.30;65.38
77019;BME280;66044;53.142;17.962;2022-12-29T11:23:29;100072.73;;;9.33;65.24
77019;BME280;66044;53.142;17.962;2022-12-29T11:26:17;100071.42;;;9.40;65.29
77019;BME280;66044;53.142;17.962;2022-12-29T11:31:39;100061.58;;;9.43;65.15
77019;BME280;66044;53.142;17.962;2022-12-29T11:34:07;100059.42;;;9.45;65.22
77019;BME280;66044;53.142;17.962;2022-12-29T11:36:35;100058.33;;;9.54;65.15
77019;BME280;66044;53.142;17.962;2022-12-29T11:39:02;100054.67;;;9.61;65.14
77019;BME280;66044;53.142;17.962;2022-12-29T11:41:30;100049.16;;;9.66;64.90
77019;BME280;66044;53.142;17.962;2022-12-29T11:44:00;100043.83;;;9.69;65.00
77019;BME280;66044;53.142;17.962;2022-12-29T11:46:29;100038.80;;;9.69;64.89
77019;BME280;66044;53.142;17.962;2022-12-29T11:48:58;100035.32;;;9.69;65.03
77019;BME280;66044;53.142;17.962;2022-12-29T11:51:29;100037.25;;;9.69;64.96
77019;BME280;66044;53.142;17.962;2022-12-29T11:53:58;100037.71;;;9.69;64.94
77019;BME280;66044;53.142;17.962;2022-12-29T11:56:35;100029.41;;;9.71;64.92
77019;BME280;66044;53.142;17.962;2022-12-29T12:01:54;100039.34;;;9.80;64.90
77019;BME280;66044;53.142;17.962;2022-12-29T12:04:23;100035.23;;;9.83;64.85
77019;BME280;66044;53.142;17.962;2022-12-29T12:09:33;100022.39;;;9.87;64.77
77019;BME280;66044;53.142;17.962;2022-12-29T12:12:01;100017.73;;;9.90;64.82
77019;BME280;66044;53.142;17.962;2022-12-29T12:14:46;100015.39;;;9.94;64.83
77019;BME280;66044;53.142;17.962;2022-12-29T12:17:24;100022.87;;;10.00;64.64
77019;BME280;66044;53.142;17.962;2022-12-29T12:22:48;100018.26;;;10.07;64.55
77019;BME280;66044;53.142;17.962;2022-12-29T12:25:34;100020.16;;;10.12;64.52
77019;BME280;66044;53.142;17.962;2022-12-29T12:28:15;100024.09;;;10.15;64.46
77019;BME280;66044;53.142;17.962;2022-12-29T12:30:47;100032.59;;;10.17;64.50
77019;BME280;66044;53.142;17.962;2022-12-29T12:33:31;100030.28;;;10.21;64.49
77019;BME280;66044;53.142;17.962;2022-12-29T12:36:22;100034.73;;;10.29;64.33
77019;BME280;66044;53.142;17.962;2022-12-29T12:39:10;100045.04;;;10.35;64.19
77019;BME280;66044;53.142;17.962;2022-12-29T12:42:03;100040.64;;;10.36;64.06
77019;BME280;66044;53.142;17.962;2022-12-29T12:44:57;100032.55;;;10.35;63.94
77019;BME280;66044;53.142;17.962;2022-12-29T12:47:43;100026.16;;;10.34;64.02
77019;BME280;66044;53.142;17.962;2022-12-29T12:50:26;100023.64;;;10.30;63.94
77019;BME280;66044;53.142;17.962;2022-12-29T12:53:14;100027.45;;;10.26;64.10
77019;BME280;66044;53.142;17.962;2022-12-29T12:58:59;100019.02;;;10.42;63.89
77019;BME280;66044;53.142;17.962;2022-12-29T13:07:17;100010.84;;;10.68;63.53
77019;BME280;66044;53.142;17.962;2022-12-29T13:13:32;100013.86;;;10.66;63.33
77019;BME280;66044;53.142;17.962;2022-12-29T13:16:10;100017.34;;;10.64;63.67
77019;BME280;66044;53.142;17.962;2022-12-29T13:19:05;100013.25;;;10.66;63.29
77019;BME280;66044;53.142;17.962;2022-12-29T13:27:59;100027.76;;;10.58;63.57
77019;BME280;66044;53.142;17.962;2022-12-29T13:30:09;100026.65;;;10.55;63.64
77019;BME280;66044;53.142;17.962;2022-12-29T13:35:46;100033.58;;;10.47;63.64
77019;BME280;66044;53.142;17.962;2022-12-29T13:38:41;100033.01;;;10.43;63.67
77019;BME280;66044;53.142;17.962;2022-12-29T13:41:12;100031.84;;;10.40;63.65
77019;BME280;66044;53.142;17.962;2022-12-29T13:43:42;100032.04;;;10.36;63.83
77019;BME280;66044;53.142;17.962;2022-12-29T13:46:18;100034.32;;;10.33;63.96
77019;BME280;66044;53.142;17.962;2022-12-29T13:51:24;100037.70;;;10.21;64.23
77019;BME280;66044;53.142;17.962;2022-12-29T13:54:09;100040.30;;;10.14;64.06
77019;BME280;66044;53.142;17.962;2022-12-29T13:56:49;100039.89;;;10.02;64.24
77019;BME280;66044;53.142;17.962;2022-12-29T13:59:48;100038.09;;;9.96;64.47
77019;BME280;66044;53.142;17.962;2022-12-29T14:03:09;100036.50;;;9.92;64.64
77019;BME280;66044;53.142;17.962;2022-12-29T14:05:28;100042.11;;;9.88;64.73
77019;BME280;66044;53.142;17.962;2022-12-29T14:08:03;100048.27;;;9.82;64.80
77019;BME280;66044;53.142;17.962;2022-12-29T14:10:38;100050.52;;;9.75;65.07
77019;BME280;66044;53.142;17.962;2022-12-29T14:13:12;100047.50;;;9.68;65.09
77019;BME280;66044;53.142;17.962;2022-12-29T14:15:42;100049.30;;;9.63;65.20
77019;BME280;66044;53.142;17.962;2022-12-29T14:18:30;100050.39;;;9.56;65.34
77019;BME280;66044;53.142;17.962;2022-12-29T14:21:10;100050.00;;;9.49;65.42
77019;BME280;66044;53.142;17.962;2022-12-29T14:23:46;100048.94;;;9.43;65.56
77019;BME280;66044;53.142;17.962;2022-12-29T14:26:33;100049.47;;;9.40;65.59
77019;BME280;66044;53.142;17.962;2022-12-29T14:30:01;100051.80;;;9.39;65.77
77019;BME280;66044;53.142;17.962;2022-12-29T14:34:58;100053.67;;;9.28;65.95
77019;BME280;66044;53.142;17.962;2022-12-29T14:40:16;100054.35;;;9.19;66.36